createdAt,value
2023-05-05T00:01:02.193Z,63.66
2023-05-05T00:03:30.275Z,65.36
2023-05-05T00:05:58.820Z,67.98
2023-05-05T00:08:29.500Z,67.59
2023-05-05T00:10:57.608Z,67.18
2023-05-05T00:13:25.675Z,67.52
2023-05-05T00:15:54.521Z,69.58
2023-05-05T00:18:22.281Z,69.34
2023-05-05T00:20:50.162Z,68.84
2023-05-05T00:23:18.384Z,68.13
2023-05-05T00:25:47.872Z,67.80
2023-05-05T00:28:15.686Z,67.51
2023-05-05T00:30:43.497Z,68.64
2023-05-05T00:33:11.456Z,68.14
2023-05-05T00:35:39.150Z,69.69
2023-05-05T00:38:06.786Z,70.26
2023-05-05T00:40:34.611Z,70.74
2023-05-05T00:43:03.762Z,69.98
2023-05-05T00:45:31.702Z,70.00
2023-05-05T00:48:01.222Z,69.43
2023-05-05T00:50:30.845Z,71.04
2023-05-05T00:53:01.671Z,69.76
2023-05-05T00:55:29.988Z,69.38
2023-05-05T00:57:58.078Z,70.23
2023-05-05T01:00:28.176Z,72.39
2023-05-05T01:02:56.127Z,74.08
2023-05-05T01:05:25.847Z,74.61
2023-05-05T01:08:07.421Z,73.79
2023-05-05T01:10:39.467Z,74.51
2023-05-05T01:13:20.357Z,74.66
2023-05-05T01:15:54.188Z,75.74
2023-05-05T01:18:32.526Z,76.92
2023-05-05T01:21:07.780Z,76.94
2023-05-05T01:23:56.069Z,77.12
2023-05-05T01:26:42.040Z,77.88
2023-05-05T01:29:30.986Z,79.21
2023-05-05T01:32:03.486Z,79.96
2023-05-05T01:34:37.410Z,80.26
2023-05-05T01:37:10.898Z,79.88
2023-05-05T01:39:39.754Z,79.26
2023-05-05T01:42:13.806Z,79.52
2023-05-05T01:44:43.885Z,79.82
2023-05-05T01:47:14.672Z,79.99
2023-05-05T01:49:46.622Z,80.82
2023-05-05T01:52:15.897Z,81.61
2023-05-05T01:54:46.087Z,82.51
2023-05-05T01:57:15.521Z,82.25
2023-05-05T01:59:43.672Z,82.48
2023-05-05T02:02:14.183Z,83.35
2023-05-05T02:04:44.283Z,83.86
2023-05-05T02:07:13.716Z,82.57
2023-05-05T02:09:43.660Z,82.75
2023-05-05T02:12:13.183Z,83.22
2023-05-05T02:14:43.894Z,83.66
2023-05-05T02:17:14.195Z,85.02
2023-05-05T02:19:45.424Z,85.01
2023-05-05T02:22:16.509Z,86.12
2023-05-05T02:24:44.993Z,85.02
2023-05-05T02:27:13.374Z,84.35
2023-05-05T02:29:48.672Z,84.96
2023-05-05T02:32:29.464Z,86.40
2023-05-05T02:35:00.156Z,88.57
2023-05-05T02:37:31.015Z,87.68
2023-05-05T02:40:03.889Z,86.57
2023-05-05T02:42:38.045Z,88.60
2023-05-05T02:45:11.206Z,87.73
2023-05-05T02:47:40.421Z,86.53
2023-05-05T02:50:09.517Z,85.39
2023-05-05T02:52:38.307Z,85.16
2023-05-05T02:55:08.149Z,83.50
2023-05-05T02:57:39.807Z,83.58
2023-05-05T03:00:11.999Z,84.17
2023-05-05T03:02:45.960Z,84.61
2023-05-05T03:05:20.877Z,84.64
2023-05-05T03:07:55.947Z,85.18
2023-05-05T03:10:31.559Z,84.78
2023-05-05T03:13:03.310Z,84.37
2023-05-05T03:15:33.438Z,84.62
2023-05-05T03:18:04.924Z,86.34
2023-05-05T03:20:33.668Z,88.25
2023-05-05T03:23:02.569Z,89.18
2023-05-05T03:25:46.466Z,88.11
2023-05-05T03:28:15.859Z,87.81
2023-05-05T03:30:44.960Z,87.01
2023-05-05T03:33:15.387Z,87.22
2023-05-05T03:35:43.348Z,86.16
2023-05-05T03:38:13.716Z,85.91
2023-05-05T03:40:44.654Z,86.37
2023-05-05T03:43:14.733Z,90.14
2023-05-05T03:45:42.504Z,90.71
2023-05-05T03:48:10.522Z,89.43
2023-05-05T03:50:39.740Z,87.82
2023-05-05T03:53:07.648Z,86.60
2023-05-05T03:55:37.339Z,86.67
2023-05-05T03:58:06.284Z,84.16
2023-05-05T04:00:34.240Z,83.83
2023-05-05T04:03:03.398Z,85.32
2023-05-05T04:05:32.234Z,86.13
2023-05-05T04:08:02.070Z,84.40
2023-05-05T04:11:11.390Z,84.25
2023-05-05T04:14:07.853Z,84.33
2023-05-05T04:16:37.090Z,85.71
2023-05-05T04:19:07.164Z,87.35
2023-05-05T04:21:37.887Z,86.26
2023-05-05T04:24:08.652Z,86.30
2023-05-05T04:26:37.404Z,86.80
2023-05-05T04:29:05.057Z,86.02
2023-05-05T04:31:33.524Z,84.77
2023-05-05T04:34:03.015Z,82.47
2023-05-05T04:36:30.761Z,80.71
2023-05-05T04:39:00.557Z,79.99
2023-05-05T04:41:30.169Z,78.72
2023-05-05T04:43:58.671Z,78.74
2023-05-05T04:46:27.002Z,78.23
2023-05-05T04:48:55.680Z,75.54
2023-05-05T04:51:23.464Z,74.92
2023-05-05T04:53:52.210Z,73.73
2023-05-05T04:56:24.058Z,74.51
2023-05-05T04:58:56.621Z,74.07
2023-05-05T05:01:28.118Z,72.36
2023-05-05T05:03:59.031Z,73.36
2023-05-05T05:06:27.585Z,72.30
2023-05-05T05:08:56.824Z,69.89
2023-05-05T05:11:27.339Z,68.22
2023-05-05T05:13:58.902Z,67.09
2023-05-05T05:16:29.975Z,67.07
2023-05-05T05:19:00.174Z,67.17
2023-05-05T05:21:34.548Z,66.02
2023-05-05T05:24:06.934Z,64.79
2023-05-05T05:26:38.844Z,60.17
2023-05-05T05:29:14.420Z,59.33
2023-05-05T05:32:19.819Z,56.80
2023-05-05T05:37:51.636Z,54.28
2023-05-05T05:40:21.378Z,52.44
2023-05-05T05:42:49.979Z,52.75
2023-05-05T05:45:20.280Z,51.17
2023-05-05T05:47:50.052Z,51.66
2023-05-05T05:50:19.012Z,52.59
2023-05-05T06:07:07.679Z,50.05
2023-05-05T06:09:35.804Z,50.36
2023-05-05T06:12:06.424Z,50.13
2023-05-05T06:22:42.959Z,48.49
2023-05-05T06:25:11.027Z,48.41
2023-05-05T06:27:38.752Z,47.86
2023-05-05T06:30:09.896Z,47.83
2023-05-05T06:32:38.484Z,48.34
2023-05-05T06:35:07.434Z,48.52
2023-05-05T06:37:35.907Z,48.19
2023-05-05T06:40:06.865Z,48.06
2023-05-05T06:42:38.712Z,47.88
2023-05-05T06:45:07.333Z,47.37
2023-05-05T06:47:35.954Z,47.39
2023-05-05T06:50:05.459Z,46.92
2023-05-05T06:52:33.556Z,46.49
2023-05-05T06:55:01.583Z,45.85
2023-05-05T06:57:33.248Z,45.45
2023-05-05T07:00:01.917Z,44.15
2023-05-05T07:02:32.302Z,40.84
2023-05-05T07:05:01.068Z,37.74
2023-05-05T07:07:28.784Z,36.73
2023-05-05T07:09:56.525Z,34.41
2023-05-05T07:15:26.045Z,33.47
2023-05-05T07:17:55.015Z,31.22
2023-05-05T07:20:26.248Z,29.88
2023-05-05T07:22:54.366Z,28.48
2023-05-05T07:25:26.828Z,30.74
2023-05-05T07:28:01.058Z,32.29
2023-05-05T07:30:28.846Z,29.27
2023-05-05T07:35:39.584Z,28.83
2023-05-05T07:38:13.421Z,27.16
2023-05-05T07:40:48.648Z,28.74
2023-05-05T07:43:19.100Z,28.53
2023-05-05T07:45:56.754Z,27.78
2023-05-05T07:48:31.987Z,29.39
2023-05-05T07:51:00.523Z,28.37
2023-05-05T07:53:31.478Z,27.82
2023-05-05T07:55:59.278Z,26.50
2023-05-05T07:58:35.571Z,28.16
2023-05-05T08:01:08.932Z,26.84
2023-05-05T08:03:37.225Z,27.94
2023-05-05T08:06:19.444Z,27.55
2023-05-05T08:08:48.970Z,27.49
2023-05-05T08:11:16.780Z,28.82
2023-05-05T08:13:46.469Z,27.21
2023-05-05T08:16:17.600Z,27.70
2023-05-05T08:18:53.522Z,25.91
2023-05-05T08:21:21.287Z,27.15
2023-05-05T08:23:49.061Z,28.78
2023-05-05T08:26:20.650Z,26.75
2023-05-05T08:28:50.010Z,27.05
2023-05-05T08:31:19.295Z,27.08
2023-05-05T08:33:48.249Z,27.41
2023-05-05T08:36:16.376Z,26.47
2023-05-05T08:38:44.145Z,27.28
2023-05-05T08:41:22.847Z,27.36
2023-05-05T08:43:52.859Z,27.41
2023-05-05T08:46:21.236Z,27.00
2023-05-05T08:48:49.805Z,26.76
2023-05-05T10:31:13.155Z,35.46
2023-05-05T10:33:55.359Z,35.55
2023-05-05T10:36:24.779Z,36.36
2023-05-05T10:38:56.605Z,35.64
2023-05-05T10:41:26.044Z,34.96
2023-05-05T10:43:56.240Z,34.39
2023-05-05T10:46:24.685Z,35.24
2023-05-05T10:49:01.049Z,34.40
2023-05-05T10:51:40.655Z,33.96
2023-05-05T10:54:15.088Z,34.20
2023-05-05T10:56:44.550Z,36.68
2023-05-05T10:59:43.846Z,36.10
2023-05-05T11:02:26.062Z,35.48
2023-05-05T11:05:14.917Z,35.36
2023-05-05T11:07:43.501Z,34.55
2023-05-05T11:10:12.506Z,34.96
2023-05-05T11:13:24.681Z,35.72
2023-05-05T11:15:56.997Z,37.04
2023-05-05T11:18:37.854Z,38.24
2023-05-05T11:21:15.726Z,39.02
2023-05-05T11:23:45.955Z,38.69
2023-05-05T11:26:16.477Z,38.39
2023-05-05T11:28:59.473Z,37.02
2023-05-05T11:31:28.142Z,37.23
2023-05-05T11:34:29.394Z,36.82
2023-05-05T11:37:10.652Z,37.72
2023-05-05T11:39:55.103Z,38.28
2023-05-05T11:42:31.295Z,38.04
2023-05-05T11:45:02.338Z,39.27
2023-05-05T11:47:32.688Z,39.91
2023-05-05T11:50:23.478Z,41.38
2023-05-05T11:52:59.656Z,42.48
2023-05-05T11:55:28.024Z,43.43
2023-05-05T11:57:58.117Z,44.86
2023-05-05T12:00:37.220Z,45.89
2023-05-05T12:03:08.163Z,47.85
2023-05-05T12:05:37.214Z,48.91
2023-05-05T12:08:10.717Z,50.41
2023-05-05T12:10:43.142Z,51.76
2023-05-05T12:13:24.313Z,53.28
2023-05-05T12:15:54.148Z,55.83
2023-05-05T12:18:23.513Z,58.32
2023-05-05T12:20:53.738Z,60.03
2023-05-05T12:23:28.529Z,61.21
2023-05-05T12:25:59.516Z,62.47
2023-05-05T12:28:44.388Z,61.94
2023-05-05T12:31:15.936Z,61.86
2023-05-05T12:33:44.957Z,62.34
2023-05-05T12:36:13.634Z,62.70
2023-05-05T12:38:47.450Z,62.66
2023-05-05T12:41:24.859Z,59.50
2023-05-05T12:43:59.834Z,58.81
2023-05-05T12:46:29.947Z,66.71
2023-05-05T12:49:12.451Z,68.71
2023-05-05T12:51:53.814Z,67.94
2023-05-05T12:54:29.505Z,71.07
2023-05-05T12:56:58.560Z,74.16
2023-05-05T12:59:30.831Z,79.45
2023-05-05T13:02:01.284Z,80.19
2023-05-05T13:04:29.400Z,78.80
2023-05-05T13:07:11.901Z,75.19
2023-05-05T13:09:41.482Z,64.95
2023-05-05T13:12:12.421Z,65.50
2023-05-05T13:14:41.005Z,65.08
2023-05-05T13:17:08.807Z,62.25
2023-05-05T13:19:41.724Z,59.81
2023-05-05T13:22:10.928Z,61.65
2023-05-05T13:24:50.840Z,61.14
2023-05-05T13:27:21.969Z,62.34
2023-05-05T13:29:50.012Z,63.23
2023-05-05T13:32:18.309Z,63.82
2023-05-05T13:34:46.000Z,64.01
2023-05-05T13:37:13.663Z,64.80
2023-05-05T13:39:41.401Z,57.17
2023-05-05T13:42:09.697Z,56.86
2023-05-05T13:44:39.321Z,57.91
2023-05-05T13:47:07.516Z,57.81
2023-05-05T13:49:35.966Z,59.05
2023-05-05T13:52:03.660Z,58.99
2023-05-05T13:54:31.659Z,57.09
2023-05-05T13:57:00.048Z,56.60
2023-05-05T13:59:28.405Z,57.18
2023-05-05T14:01:57.788Z,57.02
2023-05-05T14:04:25.917Z,57.25
2023-05-05T14:06:54.753Z,56.92
2023-05-05T14:09:22.586Z,56.82
2023-05-05T14:11:50.278Z,56.56
2023-05-05T14:14:18.033Z,56.89
2023-05-05T14:16:47.849Z,55.97
2023-05-05T14:19:18.499Z,56.66
2023-05-05T14:21:46.527Z,56.66
2023-05-05T14:24:14.215Z,56.87
2023-05-05T14:26:41.932Z,60.18
2023-05-05T14:29:09.662Z,61.98
2023-05-05T14:31:37.419Z,66.25
2023-05-05T14:34:05.517Z,68.71
2023-05-05T14:36:34.970Z,73.76
2023-05-05T14:39:02.716Z,76.26
2023-05-05T14:41:30.375Z,74.55
2023-05-05T14:43:59.189Z,76.26
2023-05-05T14:46:27.865Z,76.07
2023-05-05T14:48:55.693Z,78.87
2023-05-05T14:51:23.487Z,83.24
2023-05-05T14:53:52.520Z,87.39
2023-05-05T14:56:21.861Z,86.08
2023-05-05T14:58:49.646Z,79.92
2023-05-05T15:01:17.532Z,75.72
2023-05-05T15:03:45.436Z,76.64
2023-05-05T15:06:15.209Z,76.39
2023-05-05T15:08:43.233Z,74.60
2023-05-05T15:11:12.358Z,72.73
2023-05-05T15:13:41.450Z,72.70
2023-05-05T15:16:09.577Z,73.30
2023-05-05T15:18:37.441Z,76.65
2023-05-05T15:21:05.569Z,83.63
2023-05-05T15:23:33.330Z,90.57
2023-05-05T15:26:01.296Z,95.91
2023-05-05T15:28:30.404Z,95.77
2023-05-05T15:31:01.784Z,98.92
2023-05-05T15:33:30.186Z,100.00
2023-05-05T15:35:58.027Z,100.00
2023-05-05T15:38:25.822Z,100.00
2023-05-05T15:40:53.516Z,100.00
2023-05-05T15:43:21.219Z,100.00
2023-05-05T15:45:50.275Z,100.00
2023-05-05T15:48:17.974Z,100.00
2023-05-05T15:50:45.657Z,100.00
2023-05-05T15:53:13.403Z,91.51
2023-05-05T15:55:41.648Z,89.22
2023-05-05T15:58:09.401Z,94.03
2023-05-05T16:00:37.313Z,100.00
2023-05-05T16:03:06.569Z,100.00
2023-05-05T16:05:34.444Z,100.00
2023-05-05T16:08:02.185Z,100.00
2023-05-05T16:10:32.830Z,100.00
2023-05-05T16:13:00.695Z,100.00
2023-05-05T16:15:28.547Z,100.00
2023-05-05T16:17:56.231Z,100.00
2023-05-05T16:20:25.314Z,100.00
2023-05-05T16:22:53.035Z,100.00
2023-05-05T16:25:20.923Z,100.00
2023-05-05T16:27:48.658Z,100.00
2023-05-05T16:30:17.061Z,100.00
2023-05-05T16:32:47.536Z,100.00
2023-05-05T16:35:15.456Z,100.00
2023-05-05T16:37:44.610Z,100.00
2023-05-05T16:40:14.508Z,100.00
2023-05-05T16:42:44.353Z,99.40
2023-05-05T16:45:13.448Z,95.51
2023-05-05T16:47:41.200Z,93.56
2023-05-05T16:50:09.840Z,89.37
2023-05-05T16:52:37.892Z,88.93
2023-05-05T16:55:07.991Z,90.23
2023-05-05T16:57:35.994Z,91.70
2023-05-05T17:00:03.798Z,94.51
2023-05-05T17:02:31.501Z,98.28
2023-05-05T17:04:59.475Z,98.74
2023-05-05T17:07:27.458Z,98.79
2023-05-05T17:09:55.215Z,98.69
2023-05-05T17:12:25.651Z,95.13
2023-05-05T17:14:53.593Z,91.08
2023-05-05T17:17:21.333Z,91.16
2023-05-05T17:19:49.052Z,95.14
2023-05-05T17:22:17.896Z,100.00
2023-05-05T17:24:46.071Z,94.89
2023-05-05T17:27:14.880Z,98.13
2023-05-05T17:29:44.798Z,100.00
2023-05-05T17:32:12.602Z,100.00
2023-05-05T17:34:41.858Z,96.68
2023-05-05T17:37:10.094Z,98.69
2023-05-05T17:39:37.804Z,100.00
2023-05-05T17:42:06.294Z,100.00
2023-05-05T17:44:33.966Z,100.00
2023-05-05T17:47:04.004Z,100.00
2023-05-05T17:49:33.240Z,100.00
2023-05-05T17:52:02.586Z,100.00
2023-05-05T17:54:30.330Z,100.00
2023-05-05T17:57:00.742Z,100.00
2023-05-05T17:59:29.778Z,100.00
2023-05-05T18:01:57.742Z,100.00
2023-05-05T18:04:27.100Z,100.00
2023-05-05T18:06:56.037Z,100.00
2023-05-05T18:09:24.668Z,100.00
2023-05-05T18:11:53.433Z,100.00
2023-05-05T18:14:22.497Z,100.00
2023-05-05T18:16:52.441Z,100.00
2023-05-05T18:19:22.288Z,100.00
2023-05-05T18:21:52.522Z,100.00
2023-05-05T18:24:20.753Z,100.00
2023-05-05T18:26:50.536Z,100.00
2023-05-05T18:29:20.576Z,100.00
2023-05-05T18:31:51.770Z,100.00
2023-05-05T18:34:22.031Z,100.00
2023-05-05T18:36:54.219Z,100.00
2023-05-05T18:39:22.495Z,100.00
2023-05-05T18:41:50.392Z,100.00
2023-05-05T18:44:19.639Z,100.00
2023-05-05T18:46:48.969Z,100.00
2023-05-05T18:49:17.234Z,100.00
2023-05-05T18:51:46.252Z,100.00
2023-05-05T18:54:15.424Z,100.00
2023-05-05T18:56:45.130Z,100.00
2023-05-05T18:59:13.012Z,100.00
2023-05-05T19:01:44.120Z,100.00
2023-05-05T19:04:26.836Z,100.00
2023-05-05T19:06:58.876Z,100.00
2023-05-05T19:09:32.747Z,100.00
2023-05-05T19:12:02.454Z,100.00
2023-05-05T19:14:34.181Z,100.00
2023-05-05T19:17:03.670Z,100.00
2023-05-05T19:19:37.771Z,100.00
2023-05-05T19:22:07.673Z,100.00
2023-05-05T19:24:40.579Z,100.00
2023-05-05T19:27:14.754Z,100.00
2023-05-05T19:29:44.816Z,100.00
2023-05-05T19:32:14.564Z,100.00
2023-05-05T19:34:45.246Z,100.00
2023-05-05T19:37:14.657Z,100.00
2023-05-05T19:39:49.086Z,100.00
2023-05-05T19:42:18.591Z,100.00
2023-05-05T19:44:48.153Z,100.00
2023-05-05T19:47:16.964Z,100.00
2023-05-05T19:49:45.452Z,100.00
2023-05-05T19:52:13.970Z,100.00
2023-05-05T19:54:48.419Z,100.00
2023-05-05T19:57:18.197Z,100.00
2023-05-05T19:59:47.154Z,100.00
2023-05-05T20:02:23.980Z,100.00
2023-05-05T20:04:57.914Z,100.00
2023-05-05T20:07:26.627Z,100.00
2023-05-05T20:09:58.814Z,100.00
2023-05-05T20:12:27.054Z,100.00
2023-05-05T20:14:57.186Z,100.00
2023-05-05T20:17:31.388Z,100.00
2023-05-05T20:20:02.115Z,100.00
2023-05-05T20:22:31.094Z,100.00
2023-05-05T20:25:01.414Z,100.00
2023-05-05T20:27:32.961Z,100.00
2023-05-05T20:30:05.125Z,100.00
2023-05-05T20:32:34.902Z,100.00
2023-05-05T20:35:04.667Z,100.00
2023-05-05T20:37:33.870Z,100.00
2023-05-05T20:40:06.298Z,100.00
2023-05-05T20:42:37.077Z,100.00
2023-05-05T20:45:08.323Z,100.00
2023-05-05T20:47:38.552Z,100.00
2023-05-05T20:50:13.496Z,100.00
2023-05-05T20:52:42.290Z,100.00
2023-05-05T20:55:20.223Z,100.00
2023-05-05T20:57:55.853Z,100.00
2023-05-05T21:00:28.383Z,100.00
2023-05-05T21:02:58.973Z,100.00
2023-05-05T21:05:28.042Z,100.00
2023-05-05T21:08:01.318Z,100.00
2023-05-05T21:10:33.342Z,100.00
2023-05-05T21:13:02.357Z,100.00
2023-05-05T21:15:34.656Z,100.00
2023-05-05T21:18:07.903Z,100.00
2023-05-05T21:20:36.889Z,100.00
2023-05-05T21:23:04.888Z,100.00
2023-05-05T21:25:34.570Z,100.00
2023-05-05T21:28:10.497Z,100.00
2023-05-05T21:30:39.410Z,100.00
2023-05-05T21:33:07.589Z,100.00
2023-05-05T21:35:39.084Z,100.00
2023-05-05T21:38:08.280Z,100.00
2023-05-05T21:40:37.639Z,100.00
2023-05-05T21:43:08.321Z,100.00
2023-05-05T21:45:38.066Z,100.00
2023-05-05T21:48:11.986Z,100.00
2023-05-05T21:50:43.025Z,100.00
2023-05-05T21:53:10.963Z,100.00
2023-05-05T21:55:42.895Z,100.00
2023-05-05T21:58:13.618Z,100.00
2023-05-05T22:00:44.597Z,100.00
2023-05-05T22:03:27.984Z,100.00
2023-05-05T22:05:56.876Z,100.00
2023-05-05T22:08:25.747Z,100.00
2023-05-05T22:10:55.237Z,100.00
2023-05-05T22:13:23.753Z,100.00
2023-05-05T22:15:55.308Z,100.00
2023-05-05T22:18:23.293Z,100.00
2023-05-05T22:20:51.544Z,100.00
2023-05-05T22:23:20.594Z,100.00
2023-05-05T22:25:49.174Z,100.00
2023-05-05T22:28:18.816Z,100.00
2023-05-05T22:30:46.993Z,100.00
2023-05-05T22:33:17.583Z,100.00
2023-05-05T22:35:45.520Z,100.00
2023-05-05T22:38:14.696Z,100.00
2023-05-05T22:40:51.032Z,100.00
2023-05-05T22:43:28.863Z,100.00
2023-05-05T22:46:01.451Z,100.00
2023-05-05T22:48:31.296Z,100.00
2023-05-05T22:50:59.947Z,100.00
2023-05-05T22:53:29.589Z,100.00
2023-05-05T22:56:01.813Z,100.00
2023-05-05T22:58:32.659Z,100.00
2023-05-05T23:01:00.983Z,100.00
2023-05-05T23:03:30.482Z,100.00
2023-05-05T23:05:59.311Z,100.00
2023-05-05T23:08:28.767Z,100.00
2023-05-05T23:10:57.743Z,100.00
2023-05-05T23:13:27.689Z,100.00
2023-05-05T23:15:57.468Z,100.00
2023-05-05T23:18:26.735Z,100.00
2023-05-05T23:20:55.705Z,100.00
2023-05-05T23:23:25.160Z,100.00
2023-05-05T23:25:55.265Z,100.00
2023-05-05T23:28:26.002Z,100.00
2023-05-05T23:30:56.288Z,100.00
2023-05-05T23:33:27.265Z,100.00
2023-05-05T23:35:55.407Z,100.00
2023-05-05T23:38:23.822Z,100.00
2023-05-05T23:40:53.138Z,100.00
2023-05-05T23:43:25.985Z,100.00
2023-05-05T23:45:54.200Z,100.00
2023-05-05T23:48:22.172Z,100.00
2023-05-05T23:50:53.564Z,100.00
2023-05-05T23:53:21.562Z,100.00
2023-05-05T23:55:51.993Z,100.00
2023-05-05T23:58:22.548Z,100.00
